Time;durP1;ratioP1;P1;durP2;ratioP2;P2;SDS_P1;SDS_P2;PMS_P1;PMS_P2;Temp;Humidity;BMP_temperature;BMP_pressure;BME280_temperature;BME280_humidity;BME280_pressure;Samples;Min_cycle;Max_cycle;Signal;HPM_P1;HPM_P2
2023/02/20 00:01:39;;;;;;;6.10;2.10;;;;;;;8.87;45.38;100154.11;145004;1269;97991;-84
2023/02/20 00:05:01;;;;;;;4.00;1.80;;;;;;;8.87;45.35;100151.14;144754;1259;98009;-85
2023/02/20 00:08:23;;;;;;;3.20;1.90;;;;;;;8.87;45.31;100151.31;144860;1259;98347;-83
2023/02/20 00:11:45;;;;;;;4.30;2.40;;;;;;;8.87;45.27;100146.28;145094;1277;98353;-84
2023/02/20 00:15:09;;;;;;;3.90;2.70;;;;;;;8.87;45.53;100141.60;145030;1259;110872;-83
2023/02/20 00:18:30;;;;;;;5.20;2.30;;;;;;;8.87;45.51;100135.52;144984;1257;97906;-83
2023/02/20 00:21:53;;;;;;;6.00;2.60;;;;;;;8.86;45.56;100131.36;145268;1269;99349;-83
2023/02/20 00:25:19;;;;;;;4.00;1.80;;;;;;;8.86;45.41;100125.30;144940;1260;100607;-84
2023/02/20 00:28:42;;;;;;;3.10;1.80;;;;;;;8.86;45.42;100125.30;144898;1269;101091;-84
2023/02/20 00:32:04;;;;;;;4.90;2.50;;;;;;;8.87;45.49;100135.19;144920;1278;97915;-84
2023/02/20 00:35:27;;;;;;;4.80;2.70;;;;;;;8.87;45.49;100127.94;144961;1259;97902;-84
2023/02/20 00:38:48;;;;;;;6.10;2.30;;;;;;;8.86;45.43;100135.70;144913;1269;97985;-85
2023/02/20 00:42:10;;;;;;;4.60;2.20;;;;;;;8.87;45.48;100135.89;144911;1260;106429;-83
2023/02/20 00:45:32;;;;;;;3.00;2.30;;;;;;;8.86;45.56;100134.83;145118;1259;99296;-83
2023/02/20 00:48:54;;;;;;;3.40;1.90;;;;;;;8.85;45.62;100135.85;144968;1267;99095;-84
2023/02/20 00:52:35;;;;;;;3.30;1.80;;;;;;;8.84;45.43;100139.95;145070;1260;97922;-84
2023/02/20 00:55:57;;;;;;;6.10;2.00;;;;;;;8.83;45.62;100147.73;144995;1260;99186;-83
2023/02/20 00:59:18;;;;;;;5.50;2.40;;;;;;;8.82;45.44;100140.11;144924;1257;99190;-84
2023/02/20 01:02:41;;;;;;;3.00;1.90;;;;;;;8.81;45.44;100139.91;144874;1260;97924;-83
2023/02/20 01:06:04;;;;;;;3.80;2.30;;;;;;;8.80;45.53;100132.92;144876;1260;98028;-85
2023/02/20 01:09:27;;;;;;;4.80;2.30;;;;;;;8.79;45.52;100128.76;144815;1262;97921;-84
2023/02/20 01:12:48;;;;;;;4.30;2.00;;;;;;;8.80;45.48;100122.00;145001;1257;99207;-84
2023/02/20 01:16:10;;;;;;;3.50;1.90;;;;;;;8.79;45.58;100130.66;144818;1270;111917;-86
2023/02/20 01:19:33;;;;;;;7.60;2.30;;;;;;;8.77;45.63;100132.69;144845;1260;97996;-85
2023/02/20 01:22:55;;;;;;;3.10;1.90;;;;;;;8.77;45.56;100132.16;145139;1259;97909;-85
2023/02/20 01:26:17;;;;;;;3.60;2.20;;;;;;;8.77;45.53;100123.99;144843;1263;102160;-84
2023/02/20 01:29:39;;;;;;;3.70;2.00;;;;;;;8.76;45.64;100111.00;144971;1257;97954;-84
2023/02/20 01:33:01;;;;;;;4.70;2.10;;;;;;;8.76;45.63;100105.79;144948;1269;99191;-84
2023/02/20 01:36:26;;;;;;;5.30;2.50;;;;;;;8.75;45.58;100111.68;145261;1259;107506;-83
2023/02/20 01:39:51;;;;;;;3.80;2.40;;;;;;;8.75;45.57;100107.67;144873;1270;107266;-83
2023/02/20 01:43:13;;;;;;;3.10;1.80;;;;;;;8.74;45.56;100111.47;145014;1260;97988;-84
2023/02/20 01:46:43;;;;;;;3.80;2.00;;;;;;;8.73;45.62;100109.88;144954;1261;97909;-85
2023/02/20 01:50:06;;;;;;;4.30;1.90;;;;;;;8.73;45.56;100114.73;144984;1257;98819;-85
2023/02/20 01:53:30;;;;;;;4.20;2.10;;;;;;;8.73;45.76;100113.87;145030;1260;98057;-85
2023/02/20 01:56:53;;;;;;;5.10;2.30;;;;;;;8.74;45.59;100109.91;144813;1258;98301;-86
2023/02/20 02:00:19;;;;;;;5.80;2.10;;;;;;;8.75;45.66;100103.35;145133;1257;97898;-85
2023/02/20 02:03:43;;;;;;;6.80;2.30;;;;;;;8.75;45.69;100097.29;144890;1257;97976;-85
2023/02/20 02:07:05;;;;;;;3.20;2.00;;;;;;;8.75;45.77;100097.13;145179;1261;97985;-84
2023/02/20 02:10:31;;;;;;;7.20;2.50;;;;;;;8.74;45.58;100095.69;144935;1262;98008;-83
2023/02/20 02:13:53;;;;;;;4.50;2.30;;;;;;;8.72;45.71;100105.01;145081;1264;97960;-85
2023/02/20 02:17:45;;;;;;;4.60;2.30;;;;;;;8.72;45.78;100098.77;145020;1260;98020;-84
2023/02/20 02:21:19;;;;;;;5.00;2.40;;;;;;;8.72;45.75;100088.20;145005;1257;98412;-86
2023/02/20 02:25:31;;;;;;;4.30;2.20;;;;;;;8.71;45.72;100087.50;145039;1257;98504;-85
2023/02/20 02:29:31;;;;;;;3.50;1.80;;;;;;;8.71;45.64;100091.13;145022;1260;99242;-84
2023/02/20 02:33:38;;;;;;;5.20;2.10;;;;;;;8.70;45.81;100092.12;145584;1269;97995;-87
2023/02/20 02:37:03;;;;;;;6.70;2.10;;;;;;;8.69;45.74;100098.34;144952;1261;97931;-85
2023/02/20 02:40:49;;;;;;;2.80;1.60;;;;;;;8.68;45.76;100099.54;145052;1257;98175;-85
2023/02/20 02:44:57;;;;;;;6.60;2.30;;;;;;;8.68;45.66;100092.60;144477;1276;98028;-84
2023/02/20 02:48:44;;;;;;;4.80;2.10;;;;;;;8.67;45.68;100094.84;143895;1273;99223;-85
2023/02/20 02:52:07;;;;;;;4.50;2.20;;;;;;;8.66;45.77;100087.17;143571;1270;98140;-85
2023/02/20 02:55:32;;;;;;;6.30;2.10;;;;;;;8.66;45.92;100088.72;143700;1273;98131;-85
2023/02/20 02:58:54;;;;;;;3.30;2.10;;;;;;;8.66;45.91;100094.79;143798;1273;98074;-87
2023/02/20 03:02:17;;;;;;;3.30;1.60;;;;;;;8.65;45.85;100091.65;143570;1285;97926;-86
2023/02/20 03:05:50;;;;;;;4.00;1.70;;;;;;;8.65;45.66;100091.66;143608;1273;98218;-83
2023/02/20 03:09:18;;;;;;;3.80;1.40;;;;;;;8.64;45.81;100087.30;143655;1271;98075;-84
2023/02/20 03:12:47;;;;;;;2.50;1.50;;;;;;;8.64;45.94;100089.01;143626;1273;98115;-84
2023/02/20 03:16:10;;;;;;;4.20;2.70;;;;;;;8.64;45.88;100086.96;143640;1273;98092;-86
2023/02/20 03:19:39;;;;;;;5.00;1.70;;;;;;;8.64;45.80;100092.11;143576;1273;98003;-85
2023/02/20 03:23:03;;;;;;;4.30;1.90;;;;;;;8.63;45.75;100090.38;144255;1264;99336;-84
2023/02/20 03:26:31;;;;;;;3.40;1.70;;;;;;;8.62;45.89;100085.16;144755;1256;98001;-84
2023/02/20 03:29:57;;;;;;;5.70;1.70;;;;;;;8.62;45.86;100081.01;144935;1270;99264;-84
2023/02/20 03:44:43;;;;;;;4.20;2.40;;;;;;;8.60;45.87;100080.08;144865;1256;97954;-84
2023/02/20 03:48:21;;;;;;;3.30;2.10;;;;;;;8.60;45.94;100078.52;144901;1260;97996;-84
2023/02/20 03:51:43;;;;;;;3.90;1.70;;;;;;;8.58;45.97;100073.45;144997;1257;97934;-83
2023/02/20 03:55:12;;;;;;;4.10;2.10;;;;;;;8.57;46.00;100076.70;144811;1256;99190;-82
2023/02/20 03:58:36;;;;;;;3.60;1.80;;;;;;;8.56;45.98;100074.42;144826;1260;97898;-85
2023/02/20 04:02:03;;;;;;;5.30;2.90;;;;;;;8.55;46.05;100067.98;144859;1263;98907;-84
2023/02/20 04:05:26;;;;;;;3.50;1.90;;;;;;;8.54;46.14;100069.35;144697;1269;97928;-84
2023/02/20 04:08:58;;;;;;;3.10;1.70;;;;;;;8.54;46.11;100072.11;144798;1270;98008;-84
2023/02/20 04:12:24;;;;;;;3.10;1.70;;;;;;;8.52;46.15;100074.67;144805;1261;98004;-84
2023/02/20 04:15:47;;;;;;;3.50;2.20;;;;;;;8.51;46.11;100071.04;144825;1262;98333;-83
2023/02/20 04:19:09;;;;;;;3.40;2.00;;;;;;;8.51;46.17;100064.78;145118;1276;98405;-85
2023/02/20 04:22:35;;;;;;;4.30;1.80;;;;;;;8.50;46.18;100055.59;144905;1261;98846;-85
2023/02/20 04:26:15;;;;;;;3.90;2.90;;;;;;;8.48;46.20;100058.13;145012;1257;98391;-83
2023/02/20 04:29:37;;;;;;;2.80;1.50;;;;;;;8.47;46.26;100052.55;144940;1259;98391;-83
2023/02/20 04:33:00;;;;;;;4.00;1.40;;;;;;;8.46;46.27;100055.45;144912;1256;99188;-84
2023/02/20 04:36:23;;;;;;;2.80;1.70;;;;;;;8.45;46.31;100046.61;144954;1278;99212;-83
2023/02/20 04:39:46;;;;;;;2.80;1.90;;;;;;;8.44;46.21;100040.52;144934;1260;99212;-84
2023/02/20 04:43:09;;;;;;;5.90;2.30;;;;;;;8.43;46.18;100035.63;145108;1262;98274;-83
2023/02/20 04:46:31;;;;;;;4.60;1.80;;;;;;;8.42;46.25;100028.16;144776;1257;97937;-84
2023/02/20 04:49:53;;;;;;;5.60;1.60;;;;;;;8.42;46.40;100023.13;144936;1270;98047;-84
2023/02/20 04:53:15;;;;;;;4.60;1.50;;;;;;;8.40;46.33;100019.80;145281;1257;111116;-82
2023/02/20 04:56:37;;;;;;;3.90;1.60;;;;;;;8.41;46.37;100016.55;144799;1271;97925;-84
2023/02/20 05:00:00;;;;;;;4.50;2.30;;;;;;;8.40;46.39;100014.42;145002;1256;98815;-86
2023/02/20 05:03:22;;;;;;;2.80;1.60;;;;;;;8.41;46.42;100015.66;144931;1259;101937;-84
2023/02/20 05:06:52;;;;;;;3.00;1.70;;;;;;;8.40;46.24;100012.35;144917;1259;98063;-85
2023/02/20 05:10:16;;;;;;;3.20;1.60;;;;;;;8.39;46.41;100009.90;144887;1259;102218;-85
2023/02/20 05:13:38;;;;;;;2.80;1.70;;;;;;;8.39;46.45;100001.94;144735;1260;102658;-82
2023/02/20 05:17:00;;;;;;;4.80;2.10;;;;;;;8.39;46.34;99993.63;145123;1261;97993;-85
2023/02/20 05:22:17;;;;;;;2.90;1.40;;;;;;;8.38;46.34;99989.28;144850;1260;97919;-84
2023/02/20 05:24:04;;;;;;;2.60;2.10;;;;;;;8.37;46.45;99988.04;144602;1261;156255;-84
2023/02/20 05:27:30;;;;;;;2.80;1.50;;;;;;;8.38;46.49;99983.23;144765;1261;107544;-85
2023/02/20 05:30:51;;;;;;;2.30;1.40;;;;;;;8.39;46.49;99986.19;144614;1262;98859;-84
2023/02/20 05:34:13;;;;;;;3.40;1.50;;;;;;;8.40;46.43;99985.84;144751;1260;97919;-84
2023/02/20 05:37:35;;;;;;;1.90;1.20;;;;;;;8.42;46.54;99994.73;144719;1260;99282;-86
2023/02/20 05:40:57;;;;;;;3.30;1.30;;;;;;;8.42;46.54;99996.14;144817;1260;97910;-86
2023/02/20 05:44:19;;;;;;;2.90;1.60;;;;;;;8.45;46.50;99996.88;145084;1262;97899;-85
2023/02/20 05:47:40;;;;;;;2.10;1.20;;;;;;;8.46;46.65;99983.05;144729;1260;97982;-85
2023/02/20 05:51:02;;;;;;;4.70;1.80;;;;;;;8.47;46.58;99970.96;144862;1257;97915;-85
2023/02/20 05:54:24;;;;;;;2.50;1.20;;;;;;;8.48;46.49;99958.53;144820;1260;99244;-86
2023/02/20 05:57:46;;;;;;;4.70;1.40;;;;;;;8.49;46.56;99964.45;144772;1260;110686;-83
2023/02/20 06:01:08;;;;;;;3.60;1.40;;;;;;;8.51;46.53;99962.59;144840;1260;97927;-85
2023/02/20 06:04:30;;;;;;;3.20;1.70;;;;;;;8.52;46.56;99957.75;145014;1260;97938;-85
2023/02/20 06:07:52;;;;;;;5.70;1.20;;;;;;;8.54;46.51;99954.35;144794;1256;102237;-84
2023/02/20 06:11:15;;;;;;;2.20;1.30;;;;;;;8.56;46.60;99955.42;144734;1261;97932;-85
2023/02/20 06:14:37;;;;;;;2.50;1.50;;;;;;;8.58;46.55;99954.80;144945;1259;99201;-85
2023/02/20 06:17:58;;;;;;;4.90;1.50;;;;;;;8.61;46.47;99950.71;145101;1267;107420;-85
2023/02/20 06:21:22;;;;;;;2.90;1.50;;;;;;;8.65;46.51;99941.45;145186;1256;97941;-83
2023/02/20 06:24:46;;;;;;;2.30;1.30;;;;;;;8.70;46.49;99940.54;145027;1257;97980;-84
2023/02/20 06:28:09;;;;;;;4.90;1.50;;;;;;;8.75;46.43;99939.95;145065;1258;97918;-85
2023/02/20 06:31:31;;;;;;;5.50;1.90;;;;;;;8.78;46.38;99936.23;144629;1260;99219;-85
2023/02/20 06:34:53;;;;;;;4.50;1.40;;;;;;;8.82;46.41;99936.14;144696;1260;98012;-83
2023/02/20 06:38:15;;;;;;;3.50;1.90;;;;;;;8.86;46.40;99933.98;144663;1264;98094;-83
2023/02/20 06:41:37;;;;;;;2.70;1.20;;;;;;;8.89;46.39;99924.70;144677;1266;99376;-83
2023/02/20 06:44:58;;;;;;;6.00;2.00;;;;;;;8.94;46.32;99921.35;144634;1260;99217;-84
2023/02/20 06:48:20;;;;;;;3.20;1.70;;;;;;;8.99;46.23;99919.38;144533;1273;97918;-84
2023/02/20 06:51:42;;;;;;;3.20;2.50;;;;;;;9.04;46.17;99923.30;144684;1260;98187;-84
2023/02/20 06:55:04;;;;;;;3.30;1.60;;;;;;;9.09;46.24;99920.45;144735;1260;99969;-86
2023/02/20 06:58:26;;;;;;;3.10;1.70;;;;;;;9.14;46.22;99908.61;144723;1263;110862;-84
2023/02/20 07:01:48;;;;;;;3.30;1.40;;;;;;;9.20;46.23;99904.77;144813;1259;98110;-84
2023/02/20 07:05:11;;;;;;;2.80;1.40;;;;;;;9.28;45.97;99906.65;145304;1259;98011;-84
2023/02/20 07:08:33;;;;;;;3.00;1.30;;;;;;;9.35;46.00;99909.57;144796;1261;101747;-86
2023/02/20 07:11:55;;;;;;;3.40;1.60;;;;;;;9.40;46.04;99914.88;145146;1260;98020;-85
2023/02/20 07:15:17;;;;;;;2.90;1.60;;;;;;;9.47;45.99;99906.52;145198;1259;98471;-86
2023/02/20 07:18:40;;;;;;;2.00;1.30;;;;;;;9.55;45.97;99894.37;144919;1259;107286;-86
2023/02/20 07:22:02;;;;;;;4.30;1.80;;;;;;;9.62;45.87;99894.52;145038;1257;97954;-85
2023/02/20 07:25:24;;;;;;;2.10;1.80;;;;;;;9.66;45.89;99893.56;145744;1257;98446;-85
2023/02/20 07:28:46;;;;;;;5.50;1.50;;;;;;;9.67;45.54;99895.99;145251;1256;97944;-86
2023/02/20 07:32:10;;;;;;;3.70;1.40;;;;;;;9.70;45.76;99896.75;145226;1260;97940;-88
2023/02/20 07:35:32;;;;;;;3.80;1.90;;;;;;;9.73;45.62;99893.15;144980;1255;99614;-86
2023/02/20 07:39:06;;;;;;;5.00;2.00;;;;;;;9.79;45.70;99895.37;145246;1259;97938;-87
2023/02/20 07:42:28;;;;;;;2.80;1.40;;;;;;;9.88;45.80;99894.14;144977;1256;97993;-84
2023/02/20 07:46:08;;;;;;;9.90;3.30;;;;;;;9.96;45.80;99897.92;145183;1259;98009;-85
2023/02/20 07:49:30;;;;;;;4.00;1.70;;;;;;;9.99;45.52;99895.39;145172;1259;97933;-82
2023/02/20 07:52:57;;;;;;;3.10;2.10;;;;;;;10.03;45.45;99885.90;145257;1259;98112;-85
2023/02/20 07:56:25;;;;;;;7.00;2.30;;;;;;;10.12;45.47;99868.00;145561;1256;98040;-83
2023/02/20 07:59:51;;;;;;;4.80;1.90;;;;;;;10.25;45.34;99857.82;145264;1261;97934;-82
2023/02/20 08:03:17;;;;;;;4.00;1.50;;;;;;;10.33;45.31;99852.07;145295;1257;99216;-87
2023/02/20 08:06:38;;;;;;;3.60;1.70;;;;;;;10.38;45.16;99838.59;144751;1267;97990;-84
2023/02/20 08:10:04;;;;;;;4.40;1.70;;;;;;;10.54;45.15;99823.20;144446;1264;98345;-79
2023/02/20 08:13:26;;;;;;;3.10;2.60;;;;;;;10.73;45.33;99819.65;144403;1265;99437;-79
2023/02/20 08:16:48;;;;;;;3.40;1.60;;;;;;;10.85;45.11;99819.29;144404;1262;98104;-78
2023/02/20 08:20:10;;;;;;;3.80;1.80;;;;;;;10.91;45.01;99813.80;144253;1265;98079;-87
2023/02/20 08:23:32;;;;;;;3.30;1.80;;;;;;;10.94;44.94;99801.15;144570;1267;98585;-87
2023/02/20 08:26:54;;;;;;;7.20;1.60;;;;;;;10.99;45.03;99798.43;145124;1259;97992;-82
2023/02/20 08:30:23;;;;;;;4.20;2.30;;;;;;;11.01;44.89;99794.27;145301;1254;110810;-83
2023/02/20 08:33:45;;;;;;;3.30;1.70;;;;;;;11.01;44.92;99784.73;145184;1255;111198;-81
2023/02/20 08:37:08;;;;;;;3.90;2.50;;;;;;;11.02;44.71;99776.73;145208;1254;97922;-79
2023/02/20 08:40:31;;;;;;;2.30;1.40;;;;;;;10.99;44.96;99772.17;145242;1257;97884;-81
2023/02/20 08:43:53;;;;;;;7.70;2.20;;;;;;;10.96;44.86;99768.14;145268;1257;97982;-79
2023/02/20 08:47:18;;;;;;;3.10;1.70;;;;;;;10.90;44.82;99767.72;145241;1253;102171;-77
2023/02/20 08:50:41;;;;;;;2.60;1.60;;;;;;;10.85;45.01;99762.44;145159;1253;102309;-81
2023/02/20 08:54:03;;;;;;;3.10;1.90;;;;;;;10.81;45.18;99760.65;145253;1259;98037;-78
2023/02/20 08:57:25;;;;;;;3.00;1.70;;;;;;;10.77;45.22;99755.21;144914;1258;98350;-78
2023/02/20 09:00:47;;;;;;;5.80;2.40;;;;;;;10.73;45.13;99745.95;145228;1259;107507;-81
2023/02/20 09:04:09;;;;;;;7.20;1.70;;;;;;;10.70;45.31;99735.65;145187;1254;97915;-79
2023/02/20 09:07:32;;;;;;;4.20;1.90;;;;;;;10.65;45.46;99726.56;145193;1254;97928;-80
2023/02/20 09:10:53;;;;;;;4.80;1.70;;;;;;;10.60;45.54;99716.77;144943;1260;97976;-77
2023/02/20 09:14:15;;;;;;;3.10;2.00;;;;;;;10.56;45.73;99708.55;145160;1258;99246;-78
2023/02/20 09:17:38;;;;;;;4.10;1.90;;;;;;;10.51;45.93;99697.02;145330;1259;97931;-77
2023/02/20 09:21:00;;;;;;;2.40;1.70;;;;;;;10.47;45.84;99681.51;144954;1260;97953;-80
2023/02/20 09:24:22;;;;;;;3.50;2.00;;;;;;;10.42;46.08;99671.36;145139;1260;97990;-78
2023/02/20 09:27:44;;;;;;;3.80;1.70;;;;;;;10.39;46.12;99663.68;145025;1259;98797;-77
2023/02/20 09:31:06;;;;;;;2.90;1.90;;;;;;;10.36;46.20;99657.91;144865;1259;109269;-78
2023/02/20 09:34:28;;;;;;;3.20;2.40;;;;;;;10.32;46.23;99637.55;145061;1258;97988;-80
2023/02/20 09:37:50;;;;;;;4.90;2.20;;;;;;;10.29;46.48;99621.34;144690;1260;97906;-80
2023/02/20 09:41:23;;;;;;;5.80;1.90;;;;;;;10.27;46.56;99603.96;144831;1259;102193;-81
2023/02/20 09:44:57;;;;;;;4.30;2.40;;;;;;;10.27;46.53;99589.36;145128;1259;102118;-77
2023/02/20 09:48:32;;;;;;;4.80;2.50;;;;;;;10.15;46.78;99577.20;145166;1261;103427;-78
2023/02/20 09:52:12;;;;;;;7.80;3.20;;;;;;;9.55;47.91;99572.58;145246;1258;102238;-77
2023/02/20 09:55:38;;;;;;;5.20;2.20;;;;;;;9.20;49.99;99553.48;144679;1260;102359;-77
2023/02/20 09:59:14;;;;;;;3.80;2.40;;;;;;;8.91;50.65;99537.92;145246;1270;102151;-77
2023/02/20 10:03:03;;;;;;;14.10;2.20;;;;;;;8.52;51.10;99528.09;144806;1261;101487;-81
2023/02/20 10:06:28;;;;;;;9.90;3.00;;;;;;;8.63;55.75;99522.04;145025;1257;101054;-81
2023/02/20 10:09:51;;;;;;;3.20;2.30;;;;;;;8.83;54.46;99512.34;145281;1254;103139;-79
2023/02/20 10:13:37;;;;;;;7.10;2.80;;;;;;;8.66;54.09;99496.45;144935;1259;102202;-77
2023/02/20 10:17:20;;;;;;;5.90;3.00;;;;;;;8.44;54.05;99485.18;145234;1260;102242;-78
2023/02/20 10:21:10;;;;;;;8.30;2.50;;;;;;;8.26;54.01;99481.52;145129;1258;103373;-75
2023/02/20 10:24:52;;;;;;;4.30;2.50;;;;;;;8.07;54.02;99465.77;144925;1258;102132;-76
2023/02/20 10:28:17;;;;;;;8.20;2.70;;;;;;;7.93;54.51;99471.20;145112;1258;101951;-77
2023/02/20 10:31:45;;;;;;;4.30;2.70;;;;;;;7.93;55.66;99463.94;145267;1259;102422;-79
2023/02/20 10:35:14;;;;;;;5.50;2.80;;;;;;;7.98;56.34;99459.55;145312;1258;102440;-77
2023/02/20 10:38:52;;;;;;;2.60;2.20;;;;;;;8.04;56.82;99449.79;144686;1260;102244;-80
2023/02/20 10:42:21;;;;;;;2.70;2.10;;;;;;;8.13;57.34;99440.09;145136;1262;102136;-78
2023/02/20 10:46:06;;;;;;;4.00;2.40;;;;;;;8.15;57.46;99429.91;144948;1254;101572;-77
2023/02/20 10:49:43;;;;;;;2.70;2.40;;;;;;;8.19;57.93;99421.50;144453;1265;102215;-77
2023/02/20 10:53:25;;;;;;;7.30;2.40;;;;;;;8.26;58.35;99421.11;144446;1264;101905;-80
2023/02/20 10:57:08;;;;;;;2.60;2.00;;;;;;;8.30;58.46;99411.31;144589;1278;103087;-80
2023/02/20 11:00:37;;;;;;;4.00;2.00;;;;;;;8.30;58.67;99406.29;144184;1265;101971;-81
2023/02/20 11:04:20;;;;;;;5.10;2.80;;;;;;;8.44;58.75;99387.52;144522;1265;102165;-79
2023/02/20 11:07:42;;;;;;;4.50;1.90;;;;;;;8.66;58.52;99379.55;144600;1262;103030;-83
2023/02/20 11:11:31;;;;;;;3.00;2.20;;;;;;;8.82;58.18;99378.75;144465;1262;98073;-80
2023/02/20 11:14:56;;;;;;;;;;;;;;;8.97;57.92;99368.21;144392;1265;103071;-79
2023/02/20 11:18:35;;;;;;;3.30;2.20;;;;;;;9.07;57.72;99361.05;144387;1261;102240;-79
2023/02/20 11:21:57;;;;;;;4.00;2.10;;;;;;;9.15;57.34;99334.47;144461;1261;100880;-80
2023/02/20 11:25:20;;;;;;;2.40;2.20;;;;;;;9.20;57.21;99281.33;144556;1262;98047;-80
2023/02/20 11:28:42;;;;;;;5.60;2.50;;;;;;;9.23;56.96;99207.32;145349;1254;97960;-80
2023/02/20 11:32:22;;;;;;;3.30;2.10;;;;;;;9.26;56.67;99245.15;145363;1258;98415;-79
2023/02/20 11:35:45;;;;;;;;;;;;;;;9.29;56.59;99223.16;145112;1261;107574;-80
2023/02/20 11:39:27;;;;;;;3.50;2.80;;;;;;;9.25;56.25;99207.34;145017;1260;107697;-83
2023/02/20 11:42:49;;;;;;;3.00;2.50;;;;;;;9.19;56.08;99200.17;145277;1254;107320;-80
2023/02/20 11:46:17;;;;;;;2.60;2.40;;;;;;;9.00;56.14;99186.11;145280;1257;99224;-82
2023/02/20 11:49:39;;;;;;;3.50;2.70;;;;;;;8.82;56.36;99166.85;145410;1259;107500;-80
2023/02/20 11:53:04;;;;;;;6.30;2.80;;;;;;;8.75;56.46;99153.09;145132;1260;98001;-81
2023/02/20 11:56:28;;;;;;;5.10;3.00;;;;;;;8.76;56.41;99135.27;145299;1259;107420;-78
2023/02/20 11:59:52;;;;;;;3.30;2.90;;;;;;;8.80;56.33;99125.95;144790;1260;97998;-80
2023/02/20 12:03:25;;;;;;;5.70;4.00;;;;;;;8.81;56.21;99120.08;145164;1259;97922;-84
2023/02/20 12:06:46;;;;;;;5.10;3.20;;;;;;;8.79;56.13;99099.27;145196;1258;107525;-80
2023/02/20 12:10:30;;;;;;;5.60;3.80;;;;;;;8.84;56.09;99081.30;145240;1257;97997;-80
2023/02/20 12:13:54;;;;;;;4.40;3.70;;;;;;;8.85;56.00;99051.16;145195;1258;107496;-81
2023/02/20 12:17:33;;;;;;;4.10;3.10;;;;;;;8.78;56.04;99023.73;145160;1259;107657;-79
2023/02/20 12:21:01;;;;;;;6.40;3.80;;;;;;;8.68;56.13;99017.41;144825;1259;106550;-80
2023/02/20 12:24:35;;;;;;;5.30;4.20;;;;;;;8.62;56.08;99016.14;145161;1256;105860;-80
2023/02/20 12:28:03;;;;;;;5.20;3.90;;;;;;;8.61;56.32;99026.69;145323;1254;107331;-79
2023/02/20 12:31:34;;;;;;;4.00;3.60;;;;;;;8.57;56.52;99029.41;144704;1260;106383;-79
2023/02/20 12:35:26;;;;;;;7.20;4.80;;;;;;;8.57;56.56;99025.95;145153;1272;107995;-79
2023/02/20 12:38:50;;;;;;;8.50;4.40;;;;;;;8.60;56.71;98994.64;145080;1259;108070;-79
2023/02/20 12:42:12;;;;;;;4.50;4.10;;;;;;;8.70;56.68;99014.48;144968;1256;108251;-80
2023/02/20 12:46:10;;;;;;;7.50;4.30;;;;;;;8.78;56.59;99017.15;145000;1257;98820;-79
2023/02/20 12:50:11;;;;;;;6.00;4.50;;;;;;;8.87;56.66;99013.23;144947;1259;107616;-80
2023/02/20 12:53:45;;;;;;;6.50;4.30;;;;;;;8.94;56.60;99008.11;144876;1259;108292;-80
2023/02/20 12:57:36;;;;;;;5.20;4.70;;;;;;;9.00;56.48;99012.48;144985;1255;107485;-80
2023/02/20 13:01:19;;;;;;;5.10;4.10;;;;;;;9.07;56.58;99014.43;144259;1265;107368;-82
2023/02/20 13:05:00;;;;;;;5.10;4.50;;;;;;;9.10;56.48;99007.52;144418;1265;108070;-79
2023/02/20 13:08:50;;;;;;;7.20;4.30;;;;;;;9.11;56.51;99005.11;144445;1265;107362;-81
2023/02/20 13:12:14;;;;;;;4.80;4.00;;;;;;;9.16;56.67;99013.98;144285;1265;107341;-78
2023/02/20 13:15:41;;;;;;;5.40;4.60;;;;;;;9.15;56.54;99003.58;144443;1276;107435;-79
2023/02/20 13:19:25;;;;;;;6.30;5.10;;;;;;;9.12;56.46;98994.38;144436;1265;107773;-79
2023/02/20 13:23:27;;;;;;;6.00;3.90;;;;;;;9.14;56.61;98985.02;144489;1265;108099;-81
2023/02/20 13:26:54;;;;;;;8.70;5.00;;;;;;;9.16;56.81;98976.20;144552;1265;107535;-79
2023/02/20 13:30:19;;;;;;;4.90;4.40;;;;;;;9.19;56.75;98979.70;144490;1263;107550;-79
2023/02/20 13:33:46;;;;;;;6.10;4.60;;;;;;;9.22;56.66;98972.61;144532;1265;107509;-79
2023/02/20 13:37:33;;;;;;;5.50;4.70;;;;;;;9.25;56.79;98962.73;144537;1256;108192;-80
2023/02/20 13:40:54;;;;;;;6.30;4.30;;;;;;;9.34;56.77;98948.41;145069;1256;107487;-81
2023/02/20 13:44:35;;;;;;;4.40;3.90;;;;;;;9.35;56.76;98936.11;144911;1259;97933;-79
2023/02/20 13:48:36;;;;;;;5.40;4.50;;;;;;;9.35;56.97;98926.39;144972;1257;107580;-80
2023/02/20 13:51:58;;;;;;;5.30;4.40;;;;;;;9.40;56.90;98921.55;144354;1262;107671;-80
2023/02/20 13:55:22;;;;;;;9.60;4.40;;;;;;;9.42;56.97;98903.71;144483;1265;98132;-80
2023/02/20 13:58:45;;;;;;;5.70;4.60;;;;;;;9.45;56.88;98923.66;144752;1265;99338;-80
2023/02/20 14:02:23;;;;;;;4.20;3.80;;;;;;;9.47;56.77;98915.86;144585;1265;98085;-81
2023/02/20 14:05:45;;;;;;;5.40;4.60;;;;;;;9.47;56.89;98907.71;144573;1265;107706;-80
2023/02/20 14:09:09;;;;;;;6.20;4.40;;;;;;;9.48;57.05;98909.97;144452;1262;98096;-80
2023/02/20 14:12:33;;;;;;;5.40;4.70;;;;;;;9.49;56.96;98907.73;144615;1265;99213;-81
2023/02/20 14:15:58;;;;;;;5.90;4.40;;;;;;;9.50;56.99;98897.84;144526;1265;107541;-80
2023/02/20 14:19:23;;;;;;;5.40;4.40;;;;;;;9.53;56.93;98889.35;144413;1261;107683;-80
2023/02/20 14:22:45;;;;;;;7.20;4.50;;;;;;;9.56;57.07;98881.90;144493;1265;106259;-79
2023/02/20 14:26:30;;;;;;;4.20;3.80;;;;;;;9.60;57.15;98877.42;144404;1262;97921;-81
2023/02/20 14:30:21;;;;;;;5.20;4.70;;;;;;;9.64;57.14;98869.45;144804;1260;107384;-79
2023/02/20 14:33:43;;;;;;;5.10;4.60;;;;;;;9.67;56.95;98872.23;144914;1257;107486;-80
2023/02/20 14:37:29;;;;;;;7.10;4.40;;;;;;;9.69;57.03;98859.58;144893;1259;98055;-80
2023/02/20 14:40:53;;;;;;;6.20;4.20;;;;;;;9.71;56.95;98866.17;145502;1256;107063;-79
2023/02/20 14:44:18;;;;;;;6.30;4.50;;;;;;;9.73;56.94;98854.21;145190;1261;99209;-80
2023/02/20 14:47:56;;;;;;;5.40;4.40;;;;;;;9.76;56.91;98827.33;145179;1257;107316;-82
2023/02/20 14:51:23;;;;;;;4.80;4.20;;;;;;;9.78;56.96;98822.46;145252;1258;107609;-80
2023/02/20 14:54:57;;;;;;;4.10;3.70;;;;;;;9.79;56.86;98836.36;144990;1260;107529;-81
2023/02/20 14:58:23;;;;;;;4.70;4.30;;;;;;;9.81;56.80;98834.45;145345;1258;107520;-79
2023/02/20 15:01:45;;;;;;;8.30;4.00;;;;;;;9.84;56.97;98811.20;145152;1257;107308;-79
2023/02/20 15:05:09;;;;;;;4.10;3.70;;;;;;;9.87;56.81;98816.25;145196;1260;99206;-80
2023/02/20 15:08:34;;;;;;;4.00;3.70;;;;;;;9.91;56.80;98821.80;145426;1259;98015;-82
2023/02/20 15:12:00;;;;;;;4.40;3.90;;;;;;;9.92;56.93;98820.95;145310;1254;108095;-79
2023/02/20 15:15:22;;;;;;;4.90;3.50;;;;;;;9.92;56.71;98797.52;145345;1254;106647;-81
2023/02/20 15:18:45;;;;;;;4.10;3.40;;;;;;;9.94;56.83;98799.58;145300;1254;97893;-81
2023/02/20 15:22:27;;;;;;;6.40;3.80;;;;;;;9.96;56.91;98805.84;145353;1254;107475;-80
2023/02/20 15:25:49;;;;;;;3.80;3.40;;;;;;;9.96;56.87;98811.39;145591;1260;108315;-79
2023/02/20 15:29:17;;;;;;;5.40;3.60;;;;;;;9.98;56.85;98801.14;145245;1260;97984;-80
2023/02/20 15:32:40;;;;;;;3.80;3.10;;;;;;;10.00;56.94;98791.78;145703;1254;107284;-81
2023/02/20 15:36:03;;;;;;;5.30;4.00;;;;;;;10.03;56.81;98790.05;145485;1258;99118;-81
2023/02/20 15:39:28;;;;;;;3.90;3.50;;;;;;;10.05;56.84;98782.92;145597;1257;107545;-83
2023/02/20 15:42:55;;;;;;;6.10;3.60;;;;;;;10.08;56.81;98781.02;145511;1259;98529;-81
2023/02/20 15:46:19;;;;;;;5.60;3.30;;;;;;;10.10;56.65;98797.52;145526;1259;107579;-81
2023/02/20 15:49:44;;;;;;;4.30;3.30;;;;;;;10.12;56.85;98793.69;145589;1258;98855;-80
2023/02/20 15:53:07;;;;;;;4.30;3.60;;;;;;;10.15;56.67;98789.35;145489;1259;106612;-80
2023/02/20 15:56:32;;;;;;;3.30;3.00;;;;;;;10.18;56.73;98777.70;145453;1259;98027;-79
2023/02/20 15:59:55;;;;;;;4.10;3.70;;;;;;;10.21;56.76;98779.45;145683;1256;107488;-79
2023/02/20 16:03:16;;;;;;;4.10;3.00;;;;;;;10.25;56.67;98764.88;145584;1256;97928;-80
2023/02/20 16:06:41;;;;;;;5.60;3.50;;;;;;;10.28;56.55;98767.15;145592;1259;98305;-80
2023/02/20 16:10:03;;;;;;;3.90;2.80;;;;;;;10.29;56.38;98753.62;145475;1258;98007;-80
2023/02/20 16:13:25;;;;;;;3.20;2.70;;;;;;;10.32;56.43;98749.09;145484;1257;99362;-81
2023/02/20 16:16:50;;;;;;;5.40;3.40;;;;;;;10.30;56.44;98745.63;145649;1254;98077;-80
2023/02/20 16:20:24;;;;;;;3.40;2.80;;;;;;;10.29;56.26;98744.59;145955;1258;97909;-81